Time;durP1;ratioP1;P1;durP2;ratioP2;P2;SDS_P1;SDS_P2;PMS_P1;PMS_P2;Temp;Humidity;BMP_temperature;BMP_pressure;BME280_temperature;BME280_humidity;BME280_pressure;Samples;Min_cycle;Max_cycle;Signal;HPM_P1;HPM_P2
2021/03/31 00:01:49;;;;;;;;;;;9.70;78.00;;;8.54;59.94;96676.25;10436650;28;1912;-84
2021/03/31 00:06:51;;;;;;;;;;;11.10;79.00;;;8.49;60.89;96671.59;10434963;28;1717;-84
2021/03/31 00:11:53;;;;;;;;;;;9.60;78.80;;;8.46;60.58;96668.56;10423418;28;1994;-85
2021/03/31 00:16:55;;;;;;;;;;;10.80;79.60;;;8.41;60.89;96661.25;10441434;28;1574;-84
2021/03/31 00:22:00;;;;;;;;;;;9.60;79.20;;;8.34;61.45;96649.84;10423747;28;1998;-83
2021/03/31 00:27:05;;;;;;;;;;;10.90;80.60;;;8.26;61.62;96652.88;10421940;28;1872;-83
2021/03/31 00:32:07;;;;;;;;;;;9.60;79.90;;;8.25;61.53;96651.25;10439348;28;1956;-86
2021/03/31 00:37:10;;;;;;;;;;;9.40;80.20;;;8.12;62.57;96647.78;10421879;28;1821;-84
2021/03/31 00:42:14;;;;;;;;;;;9.30;80.60;;;8.04;62.92;96647.34;10416188;28;2131;-81
2021/03/31 00:47:16;;;;;;;;;;;9.20;81.00;;;7.96;63.06;96640.50;10432491;28;1823;-85
2021/03/31 00:52:19;;;;;;;;;;;9.10;81.30;;;7.94;62.55;96644.44;10431315;28;1917;-83
2021/03/31 00:57:21;;;;;;;;;;;9.10;81.60;;;7.88;62.85;96634.66;10420920;28;1291;-85
2021/03/31 01:02:24;;;;;;;;;;;9.00;81.70;;;7.83;63.36;96628.19;10429516;28;3140;-84
2021/03/31 01:07:26;;;;;;;;;;;8.90;81.90;;;7.78;63.12;96635.28;10410850;28;3182;-85
2021/03/31 01:12:28;;;;;;;;;;;8.90;82.00;;;7.75;63.05;96625.03;10433951;28;2061;-81
2021/03/31 01:17:30;;;;;;;;;;;9.30;82.50;;;7.70;63.58;96623.06;10452394;28;2053;-86
2021/03/31 01:22:32;;;;;;;;;;;8.80;82.50;;;7.67;63.62;96628.88;10438734;28;1812;-85
2021/03/31 01:27:34;;;;;;;;;;;10.00;83.40;;;7.55;64.01;96615.50;10430819;28;2165;-85
2021/03/31 01:32:37;;;;;;;;;;;9.70;83.60;;;7.48;64.55;96622.84;10427026;28;2060;-85
2021/03/31 01:37:39;;;;;;;;;;;8.90;83.70;;;7.44;65.07;96624.34;10419331;28;2049;-85
2021/03/31 01:42:41;;;;;;;;;;;8.60;83.70;;;7.36;65.15;96613.19;10412878;28;2073;-85
2021/03/31 01:47:44;;;;;;;;;;;8.50;84.00;;;7.36;65.43;96619.34;10407509;28;1988;-84
2021/03/31 01:52:46;;;;;;;;;;;8.40;84.40;;;7.27;65.14;96618.88;10431415;28;2056;-85
2021/03/31 01:57:48;;;;;;;;;;;8.40;84.20;;;7.24;64.77;96619.34;10415711;28;1521;-84
2021/03/31 02:02:50;;;;;;;;;;;8.30;84.30;;;7.23;65.02;96616.91;10429992;28;2012;-84
2021/03/31 02:07:52;;;;;;;;;;;8.30;84.60;;;7.17;65.17;96617.81;10404367;28;2176;-83
2021/03/31 02:12:54;;;;;;;;;;;8.30;84.60;;;7.10;65.37;96611.78;10424598;28;2062;-85
2021/03/31 02:18:04;;;;;;;;;;;9.70;85.60;;;7.11;66.08;96618.75;10411321;28;2017;-82
2021/03/31 02:23:09;;;;;;;;;;;9.10;85.80;;;7.05;66.28;96612.47;10409160;28;1573;-84
2021/03/31 02:28:14;;;;;;;;;;;8.10;85.50;;;7.00;66.64;96602.47;10420250;28;2086;-85
2021/03/31 02:33:19;;;;;;;;;;;9.30;86.40;;;6.98;66.63;96593.84;10463900;28;2076;-83
2021/03/31 02:38:21;;;;;;;;;;;8.00;86.10;;;6.95;66.77;96599.69;10439041;28;1939;-83
2021/03/31 02:43:27;;;;;;;;;;;9.50;87.10;;;6.91;66.14;96597.69;10441714;28;2397;-84
2021/03/31 02:48:29;;;;;;;;;;;9.80;87.30;;;6.84;66.28;96600.47;10445248;28;1942;-85
2021/03/31 02:53:31;;;;;;;;;;;8.00;86.30;;;6.78;67.06;96596.03;10442000;28;1876;-85
2021/03/31 02:58:34;;;;;;;;;;;7.90;86.60;;;6.74;67.63;96598.38;10446502;28;1170;-85
2021/03/31 03:03:37;;;;;;;;;;;7.90;87.20;;;6.72;68.20;96588.94;10428825;28;2023;-85
2021/03/31 03:08:40;;;;;;;;;;;7.90;87.50;;;6.71;67.83;96581.97;10443759;28;1973;-86
2021/03/31 03:13:42;;;;;;;;;;;7.80;87.50;;;6.64;68.07;96592.75;10429172;28;1922;-85
2021/03/31 03:18:44;;;;;;;;;;;7.70;87.50;;;6.57;67.63;96597.38;10408892;28;1908;-84
2021/03/31 03:23:46;;;;;;;;;;;7.70;87.50;;;6.49;67.00;96584.34;10405287;28;2221;-86
2021/03/31 03:28:49;;;;;;;;;;;7.60;87.10;;;6.46;66.72;96596.28;10397777;28;1985;-83
2021/03/31 03:33:51;;;;;;;;;;;8.50;87.40;;;6.39;67.20;96578.75;10401101;28;1661;-85
2021/03/31 03:38:53;;;;;;;;;;;7.50;87.20;;;6.40;66.56;96575.03;10440407;28;2043;-84
2021/03/31 03:43:55;;;;;;;;;;;7.50;87.10;;;6.33;67.23;96583.13;10421115;28;1576;-81
2021/03/31 03:48:58;;;;;;;;;;;7.50;87.20;;;6.31;67.33;96582.56;10432098;28;1910;-85
2021/03/31 03:54:00;;;;;;;;;;;7.40;87.20;;;6.25;67.32;96585.31;10410811;28;1933;-84
2021/03/31 03:59:05;;;;;;;;;;;7.40;87.50;;;6.23;67.33;96580.19;10405271;28;1849;-85
2021/03/31 04:04:07;;;;;;;;;;;7.30;87.50;;;6.20;67.46;96580.66;10437020;28;2199;-84
2021/03/31 04:09:10;;;;;;;;;;;7.30;87.80;;;6.21;67.73;96576.94;10404609;28;2005;-85
2021/03/31 04:14:12;;;;;;;;;;;7.30;87.90;;;6.17;67.74;96584.59;10417828;28;1455;-84
2021/03/31 04:19:14;;;;;;;;;;;7.70;88.20;;;6.14;67.53;96577.03;10445261;28;1598;-86
2021/03/31 04:24:20;;;;;;;;;;;7.30;88.00;;;6.12;67.34;96575.63;10432864;28;1855;-83
2021/03/31 04:29:23;;;;;;;;;;;7.20;87.90;;;6.08;67.06;96571.78;10412987;28;1975;-82
2021/03/31 04:34:26;;;;;;;;;;;7.20;87.80;;;6.09;66.92;96573.41;10462468;28;2032;-83
2021/03/31 04:39:32;;;;;;;;;;;7.20;87.70;;;6.02;66.86;96567.34;10428002;28;2057;-83
2021/03/31 04:44:34;;;;;;;;;;;7.20;87.60;;;6.00;67.22;96580.09;10425065;28;2046;-85
2021/03/31 04:49:37;;;;;;;;;;;7.10;87.70;;;5.99;66.89;96573.94;10426154;28;1983;-86
2021/03/31 04:54:39;;;;;;;;;;;7.10;87.60;;;6.00;66.79;96564.91;10414809;28;2049;-84
2021/03/31 04:59:42;;;;;;;;;;;7.10;87.50;;;6.01;66.60;96571.84;10418427;28;2091;-85
2021/03/31 05:10:23;;;;;;;;;;;8.00;87.80;;;6.16;65.70;96574.94;10410539;28;2068;-85
2021/03/31 05:15:42;;;;;;;;;;;7.10;87.20;;;6.35;65.19;96580.22;10413373;28;2191;-85
2021/03/31 05:20:59;;;;;;;;;;;7.80;87.00;;;6.57;64.75;96575.19;10407537;28;2083;-84
2021/03/31 05:26:16;;;;;;;;;;;8.60;87.00;;;6.86;63.69;96570.81;10430160;28;1925;-85
2021/03/31 05:37:15;;;;;;;;;;;9.20;85.50;;;7.51;60.93;96568.06;10410004;28;2025;-86
2021/03/31 05:42:18;;;;;;;;;;;8.20;83.90;;;7.77;59.81;96570.22;10406662;28;1929;-85
2021/03/31 05:47:24;;;;;;;;;;;8.50;82.80;;;8.03;58.60;96574.25;10429191;28;1781;-83
2021/03/31 05:52:26;;;;;;;;;;;8.70;82.10;;;8.32;57.72;96571.56;10405137;28;2053;-85
2021/03/31 05:57:28;;;;;;;;;;;10.20;81.80;;;8.61;56.75;96572.41;10417302;28;2030;-84
2021/03/31 06:02:30;;;;;;;;;;;9.80;80.60;;;8.87;55.80;96569.09;10404717;28;1994;-85
2021/03/31 06:07:32;;;;;;;;;;;9.60;79.10;;;9.18;54.10;96559.66;10425461;28;2121;-86
2021/03/31 06:12:42;;;;;;;;;;;10.60;78.40;;;9.53;53.19;96555.03;10418430;28;2291;-82
2021/03/31 06:17:44;;;;;;;;;;;10.10;76.90;;;9.78;51.79;96546.50;10404553;28;2047;-83
2021/03/31 06:22:54;;;;;;;;;;;10.40;75.90;;;10.04;51.79;96548.44;10419017;28;2018;-83
2021/03/31 06:27:57;;;;;;;;;;;10.70;75.10;;;10.20;50.10;96546.75;10416482;28;1767;-84
2021/03/31 06:33:00;;;;;;;;;;;10.90;73.60;;;10.47;49.66;96544.09;10412416;28;1975;-84
2021/03/31 06:38:04;;;;;;;;;;;11.10;73.00;;;10.83;47.84;96542.56;10418788;28;2419;-83
2021/03/31 06:43:06;;;;;;;;;;;11.30;71.80;;;10.97;46.79;96538.38;10419034;28;2140;-84
2021/03/31 06:48:09;;;;;;;;;;;11.60;70.30;;;11.27;45.77;96535.09;10438612;28;2229;-83
2021/03/31 06:53:12;;;;;;;;;;;11.80;69.30;;;11.49;45.24;96531.44;10420840;28;1952;-82
2021/03/31 06:58:16;;;;;;;;;;;12.00;68.50;;;11.72;44.21;96539.13;10422627;28;1966;-87
2021/03/31 07:03:18;;;;;;;;;;;12.20;67.60;;;12.05;43.84;96545.22;10414016;28;2057;-83
2021/03/31 07:08:21;;;;;;;;;;;12.50;67.10;;;12.27;42.74;96537.72;10419091;28;2093;-84
2021/03/31 07:13:24;;;;;;;;;;;12.70;66.00;;;12.30;41.55;96534.53;10426550;28;2089;-82
2021/03/31 07:18:26;;;;;;;;;;;12.90;65.00;;;12.55;41.11;96538.34;10428524;28;2045;-84
2021/03/31 07:23:28;;;;;;;;;;;13.10;64.50;;;12.89;41.04;96534.06;10426335;28;1917;-84
2021/03/31 07:28:29;;;;;;;;;;;13.40;64.00;;;13.27;40.51;96542.72;10422339;28;2092;-83
2021/03/31 07:33:31;;;;;;;;;;;13.60;63.60;;;13.45;39.76;96539.47;10407443;28;2089;-83
2021/03/31 07:38:33;;;;;;;;;;;13.90;62.50;;;13.59;38.75;96533.47;10437113;28;2450;-84
2021/03/31 07:43:36;;;;;;;;;;;14.20;61.40;;;13.57;39.92;96535.66;10410501;28;2428;-84
2021/03/31 07:48:38;;;;;;;;;;;14.40;61.50;;;13.80;39.34;96540.44;10401453;28;1906;-83
2021/03/31 07:53:42;;;;;;;;;;;14.50;61.40;;;14.07;38.70;96534.69;10425978;28;1966;-83
2021/03/31 07:58:44;;;;;;;;;;;14.70;60.60;;;14.15;38.27;96527.88;10399732;28;3354;-84
2021/03/31 08:03:45;;;;;;;;;;;14.90;60.20;;;14.40;38.17;96530.47;10409887;28;3385;-83
2021/03/31 08:08:49;;;;;;;;;;;15.00;59.80;;;14.48;38.00;96529.91;10413086;28;3384;-84
2021/03/31 08:13:51;;;;;;;;;;;15.20;59.70;;;14.58;37.94;96521.72;10419678;28;3305;-82
2021/03/31 08:18:53;;;;;;;;;;;15.40;59.30;;;14.92;37.13;96512.81;10417017;28;2387;-81
2021/03/31 08:23:55;;;;;;;;;;;15.70;58.80;;;15.31;36.28;96520.06;10416186;28;2010;-83
2021/03/31 08:28:58;;;;;;;;;;;15.90;58.20;;;15.43;35.82;96516.97;10411526;28;2265;-84
2021/03/31 08:34:04;;;;;;;;;;;16.10;57.70;;;15.57;35.46;96515.19;10414768;28;1975;-82
2021/03/31 08:39:06;;;;;;;;;;;16.40;57.00;;;15.88;34.91;96508.38;10414846;28;2039;-84
2021/03/31 08:44:08;;;;;;;;;;;16.50;56.50;;;16.30;34.40;96514.09;10411864;28;2517;-83
2021/03/31 08:49:10;;;;;;;;;;;16.80;56.10;;;16.36;34.42;96512.94;10436303;28;1922;-83
2021/03/31 08:54:13;;;;;;;;;;;17.00;56.00;;;16.39;33.73;96506.91;10458408;28;2002;-82
2021/03/31 08:59:16;;;;;;;;;;;17.20;55.00;;;16.49;33.23;96504.88;10411539;28;1984;-84
2021/03/31 09:04:18;;;;;;;;;;;17.40;54.60;;;16.93;33.27;96505.59;10414147;28;1968;-80
2021/03/31 09:09:20;;;;;;;;;;;17.60;54.50;;;17.04;32.72;96493.44;10453939;28;2077;-83
2021/03/31 09:14:27;;;;;;;;;;;17.80;53.90;;;17.33;31.91;96487.00;10443823;28;1962;-81
2021/03/31 09:19:29;;;;;;;;;;;18.00;53.00;;;17.44;31.02;96483.81;10430362;28;1309;-83
2021/03/31 09:24:35;;;;;;;;;;;18.20;52.00;;;17.35;31.23;96476.63;10423119;28;2109;-84
2021/03/31 09:29:41;;;;;;;;;;;18.20;51.70;;;17.55;30.67;96476.25;10421325;28;1902;-83
2021/03/31 09:34:49;;;;;;;;;;;18.40;51.60;;;17.84;30.42;96470.56;10428980;28;1886;-82
2021/03/31 09:40:00;;;;;;;;;;;18.50;51.30;;;17.82;29.95;96479.03;10438054;28;2129;-81
2021/03/31 09:45:10;;;;;;;;;;;18.70;50.50;;;17.83;29.71;96464.31;10408308;28;1814;-83
2021/03/31 09:50:21;;;;;;;;;;;18.80;50.00;;;18.06;29.79;96462.47;10409612;28;1906;-82
2021/03/31 09:55:23;;;;;;;;;;;18.90;50.20;;;18.22;29.93;96460.22;10407911;28;1884;-82
2021/03/31 10:00:29;;;;;;;;;;;19.10;50.10;;;18.59;29.32;96442.78;10411592;28;1971;-83
2021/03/31 10:05:33;;;;;;;;;;;19.30;49.70;;;18.62;29.16;96446.81;10392247;28;2114;-82
2021/03/31 10:10:47;;;;;;;;;;;19.50;49.20;;;18.81;28.80;96439.28;10413555;28;1978;-82
2021/03/31 10:15:52;;;;;;;;;;;19.60;49.20;;;18.88;28.76;96434.19;10399197;28;2063;-83
2021/03/31 10:20:55;;;;;;;;;;;19.80;49.10;;;18.58;29.28;96437.66;10425017;28;1941;-83
2021/03/31 10:38:36;;;;;;;;;;;19.80;48.30;;;19.00;28.59;96408.31;10421278;28;1963;-84
2021/03/31 10:50:07;;;;;;;;;;;20.00;48.10;;;18.85;29.15;96409.53;10426604;28;2080;-83
2021/03/31 11:01:41;;;;;;;;;;;20.00;48.20;;;19.21;28.24;96397.69;10321720;28;1935;-83
2021/03/31 11:07:19;;;;;;;;;;;20.10;48.10;;;19.43;27.64;96392.97;10304558;28;2046;-85
2021/03/31 11:30:38;;;;;;;;;;;20.50;46.00;;;19.41;26.99;96362.50;10331523;28;2081;-84
2021/03/31 11:36:53;;;;;;;;;;;;;;;;;;;;;
2021/03/31 11:53:50;;;;;;;;;;;20.50;45.90;;;19.77;26.54;96344.31;10331432;28;1939;-84
2021/03/31 11:59:38;;;;;;;;;;;;;;;;;;;;;
2021/03/31 12:04:51;;;;;;;;;;;20.80;45.20;;;19.79;26.67;96337.44;10336010;28;1863;-85
2021/03/31 12:10:39;;;;;;;;;;;20.80;45.40;;;19.90;26.23;96332.47;10363175;28;1906;-85
2021/03/31 12:34:32;;;;;;;;;;;21.00;45.90;;;20.41;26.85;96301.63;10337320;28;1975;-82
2021/03/31 12:40:14;;;;;;;;;;;21.30;45.70;;;20.31;26.89;96299.25;10341308;28;2108;-82
2021/03/31 12:45:40;;;;;;;;;;;21.20;45.70;;;20.45;26.28;96288.19;10316924;28;2004;-84
2021/03/31 12:51:06;;;;;;;;;;;21.40;45.40;;;20.45;26.45;96283.50;10322661;28;1966;-82
2021/03/31 12:56:08;;;;;;;;;;;21.40;45.40;;;20.46;26.69;96276.91;10400846;28;2083;-81
2021/03/31 13:01:15;;;;;;;;;;;21.50;45.60;;;20.75;26.91;96273.47;10412855;28;2044;-81
2021/03/31 13:06:38;;;;;;;;;;;21.50;46.20;;;20.92;26.42;96269.88;10411879;28;2020;-83
2021/03/31 13:12:01;;;;;;;;;;;21.80;45.60;;;20.57;26.68;96266.47;10390227;28;1950;-80
2021/03/31 13:17:36;;;;;;;;;;;21.70;45.30;;;20.78;26.69;96255.63;10411978;28;2009;-84
2021/03/31 13:23:01;;;;;;;;;;;21.70;45.60;;;20.75;26.69;96248.09;10402120;28;1680;-83
2021/03/31 13:28:25;;;;;;;;;;;21.70;45.60;;;20.88;26.79;96244.34;10389938;28;1848;-82
2021/03/31 13:33:29;;;;;;;;;;;21.70;45.60;;;20.72;26.80;96237.81;10409622;28;1996;-83
2021/03/31 13:38:38;;;;;;;;;;;21.80;45.40;;;20.87;26.87;96223.63;10409174;28;2359;-81
2021/03/31 13:43:40;;;;;;;;;;;21.70;45.80;;;20.95;26.49;96225.50;10405994;28;1934;-83
2021/03/31 13:59:56;;;;;;;;;;;21.90;45.10;;;20.90;26.04;96217.47;10389133;28;2300;-86
2021/03/31 14:04:58;;;;;;;;;;;21.90;44.60;;;20.84;26.41;96207.88;10426264;28;2305;-84
2021/03/31 14:10:20;;;;;;;;;;;21.80;45.00;;;20.99;26.13;96204.59;10440875;28;2232;-85
2021/03/31 14:15:44;;;;;;;;;;;21.80;44.90;;;20.94;26.11;96196.56;10422636;28;1747;-85
2021/03/31 14:21:08;;;;;;;;;;;21.90;45.00;;;20.95;26.00;96186.44;10443730;28;1596;-84
2021/03/31 14:26:10;;;;;;;;;;;21.90;44.80;;;20.89;26.10;96185.03;10414272;28;1484;-85
2021/03/31 14:31:16;;;;;;;;;;;21.90;44.70;;;20.94;26.50;96173.91;10386253;28;1998;-84
2021/03/31 14:36:40;;;;;;;;;;;21.90;45.10;;;21.17;25.78;96172.47;10380705;28;1802;-84
2021/03/31 14:42:03;;;;;;;;;;;22.00;44.80;;;21.05;26.34;96164.97;10413778;28;1774;-84
2021/03/31 14:47:29;;;;;;;;;;;22.00;44.90;;;21.09;25.81;96159.66;10412882;28;1476;-82
2021/03/31 15:03:37;;;;;;;;;;;21.90;44.80;;;20.63;26.41;96136.00;10415112;28;1241;-84
2021/03/31 15:08:40;;;;;;;;;;;21.70;44.80;;;20.64;26.56;96132.13;10396505;28;1944;-83
2021/03/31 15:13:43;;;;;;;;;;;21.60;45.00;;;20.66;26.23;96132.59;10388569;28;1527;-84
2021/03/31 15:19:11;;;;;;;;;;;21.60;44.70;;;20.72;26.11;96125.81;10397606;28;1781;-82
2021/03/31 15:24:13;;;;;;;;;;;21.60;44.80;;;20.82;26.18;96122.69;10408536;28;1285;-83
2021/03/31 15:29:15;;;;;;;;;;;21.70;44.80;;;20.77;26.39;96114.69;10389897;28;1883;-84
2021/03/31 15:34:17;;;;;;;;;;;21.70;44.80;;;20.71;26.41;96113.28;10415028;28;1355;-82
2021/03/31 15:39:24;;;;;;;;;;;21.60;44.80;;;20.65;26.45;96106.41;10391857;28;1625;-83
2021/03/31 15:44:26;;;;;;;;;;;21.60;44.80;;;20.61;26.58;96105.44;10407298;28;1356;-85
2021/03/31 15:55:36;;;;;;;;;;;21.40;44.80;;;20.38;26.85;96102.19;10419124;28;1697;-85
2021/03/31 16:00:43;;;;;;;;;;;21.40;45.00;;;20.30;26.87;96092.09;10401836;28;1840;-83
2021/03/31 16:05:45;;;;;;;;;;;21.30;45.10;;;20.33;26.84;96094.97;10414323;28;1563;-82
2021/03/31 16:10:47;;;;;;;;;;;21.20;45.20;;;20.25;26.99;96098.53;10414487;28;1906;-85
2021/03/31 16:16:02;;;;;;;;;;;21.20;45.20;;;20.19;27.14;96088.94;10386132;28;1354;-85
2021/03/31 16:21:05;;;;;;;;;;;21.10;45.40;;;20.14;27.48;96091.84;10393315;28;1753;-83
2021/03/31 16:26:08;;;;;;;;;;;21.10;45.60;;;20.14;27.26;96094.56;10391342;28;1257;-83
2021/03/31 16:31:28;;;;;;;;;;;21.00;45.50;;;20.07;27.48;96091.53;10394880;28;1977;-84
2021/03/31 16:36:32;;;;;;;;;;;21.00;45.70;;;19.92;27.53;96087.44;10435445;28;1492;-83
2021/03/31 16:41:39;;;;;;;;;;;20.80;45.60;;;19.85;27.13;96092.56;10406712;28;1550;-85
2021/03/31 16:46:41;;;;;;;;;;;20.80;45.20;;;19.76;27.16;96091.78;10394550;28;1678;-86
2021/03/31 16:51:43;;;;;;;;;;;20.70;45.40;;;19.62;27.65;96087.31;10379723;28;2005;-85
2021/03/31 16:56:45;;;;;;;;;;;20.60;45.60;;;19.57;27.63;96087.47;10402229;28;1675;-84
2021/03/31 17:01:46;;;;;;;;;;;20.50;45.80;;;19.43;27.28;96089.56;10398001;28;2002;-86
2021/03/31 17:06:53;;;;;;;;;;;20.40;45.50;;;19.25;27.78;96085.25;10391255;28;1626;-84
2021/03/31 17:11:55;;;;;;;;;;;20.20;45.60;;;19.21;27.64;96087.00;10409435;28;1977;-85
2021/03/31 17:17:03;;;;;;;;;;;20.20;45.60;;;18.87;28.03;96077.69;10401367;28;1300;-84
2021/03/31 17:22:10;;;;;;;;;;;20.00;45.70;;;18.54;28.57;96074.56;10402742;28;1564;-83
2021/03/31 17:27:12;;;;;;;;;;;19.80;46.10;;;18.37;28.73;96070.69;10431988;28;1933;-82
2021/03/31 17:32:19;;;;;;;;;;;19.50;46.40;;;18.23;28.56;96074.63;10419368;28;2021;-84
2021/03/31 17:37:26;;;;;;;;;;;19.30;46.40;;;18.00;28.84;96076.63;10402792;28;1896;-83
2021/03/31 17:42:33;;;;;;;;;;;19.10;46.70;;;17.90;29.16;96076.91;10412182;28;1789;-84
2021/03/31 17:47:35;;;;;;;;;;;19.00;46.90;;;17.68;29.74;96073.06;10395902;28;1572;-86
2021/03/31 17:52:40;;;;;;;;;;;18.80;47.30;;;17.56;31.20;96079.09;10423500;28;1973;-85
2021/03/31 17:57:42;;;;;;;;;;;18.70;48.60;;;17.20;32.22;96071.00;10393454;28;1622;-87
2021/03/31 18:02:53;;;;;;;;;;;18.50;49.20;;;16.78;33.23;96080.41;10422926;28;1351;-88
2021/03/31 18:07:57;;;;;;;;;;;18.10;49.90;;;16.45;34.21;96090.59;10422876;28;2022;-87
2021/03/31 18:13:00;;;;;;;;;;;17.80;50.90;;;16.26;34.71;96089.88;10403742;28;1887;-87
2021/03/31 18:18:09;;;;;;;;;;;17.50;51.80;;;16.03;35.85;96092.50;10380892;28;1794;-86
2021/03/31 18:23:16;;;;;;;;;;;17.30;52.70;;;15.85;36.86;96090.69;10382427;28;1512;-85
2021/03/31 18:28:23;;;;;;;;;;;17.10;53.40;;;15.67;37.18;96095.84;10403771;28;1055;-85
2021/03/31 18:33:25;;;;;;;;;;;16.90;54.10;;;15.47;37.69;96109.72;10393825;28;1922;-84
2021/03/31 18:38:30;;;;;;;;;;;16.70;54.60;;;15.29;38.36;96099.72;10400752;28;1226;-83
2021/03/31 18:43:33;;;;;;;;;;;16.60;55.30;;;15.22;38.95;96104.72;10420118;28;1575;-87
2021/03/31 18:48:37;;;;;;;;;;;16.40;55.70;;;15.16;39.22;96105.91;10396971;28;1382;-87
2021/03/31 18:53:40;;;;;;;;;;;16.40;56.10;;;15.06;39.42;96112.25;10386567;28;1974;-86
2021/03/31 18:58:43;;;;;;;;;;;16.20;56.20;;;15.00;39.72;96110.72;10381045;28;1696;-87
2021/03/31 19:03:47;;;;;;;;;;;16.20;56.70;;;14.91;40.17;96110.59;10395480;28;1585;-84
2021/03/31 19:14:15;;;;;;;;;;;16.00;57.70;;;14.61;41.34;96114.50;10378351;28;1160;-87
2021/03/31 19:19:32;;;;;;;;;;;15.80;58.10;;;14.32;42.08;96112.69;10398296;28;1611;-88
2021/03/31 19:24:34;;;;;;;;;;;15.60;59.00;;;14.27;42.34;96120.06;10384776;28;1707;-85
2021/03/31 19:29:36;;;;;;;;;;;15.50;59.60;;;14.21;43.01;96118.50;10400045;28;1887;-85
2021/03/31 19:34:38;;;;;;;;;;;15.40;60.20;;;14.03;43.82;96112.72;10387807;28;1496;-85
2021/03/31 19:39:40;;;;;;;;;;;15.30;60.60;;;13.87;44.41;96114.00;10404152;28;1440;-85
2021/03/31 19:44:42;;;;;;;;;;;15.10;61.20;;;13.82;45.17;96105.94;10377310;28;1515;-87
2021/03/31 19:49:44;;;;;;;;;;;15.00;62.20;;;13.71;45.08;96109.81;10395172;28;1977;-87
2021/03/31 19:54:46;;;;;;;;;;;14.90;62.40;;;13.62;46.05;96095.34;10412233;28;1762;-84
2021/03/31 19:59:48;;;;;;;;;;;14.80;63.10;;;13.52;46.19;96102.44;10395277;28;1647;-85
2021/03/31 20:04:55;;;;;;;;;;;14.70;63.20;;;13.39;46.54;96097.69;10422160;28;1415;-84
2021/03/31 20:09:56;;;;;;;;;;;14.60;64.10;;;13.28;48.21;96095.34;10405517;28;1902;-87
2021/03/31 20:14:58;;;;;;;;;;;14.50;64.90;;;13.15;48.11;96092.19;10400557;28;1786;-85
2021/03/31 20:20:00;;;;;;;;;;;14.40;65.40;;;13.09;47.64;96081.69;10402296;28;1870;-87
2021/03/31 20:25:05;;;;;;;;;;;14.30;65.30;;;13.03;47.84;96082.81;10409977;28;1574;-86
2021/03/31 20:30:07;;;;;;;;;;;14.20;65.50;;;12.94;47.76;96074.53;10409926;28;1883;-86
2021/03/31 20:35:10;;;;;;;;;;;14.10;65.40;;;12.88;47.61;96075.66;10407842;28;1568;-85
2021/03/31 20:40:11;;;;;;;;;;;14.00;65.10;;;12.85;47.21;96078.91;10401628;28;1888;-87
2021/03/31 20:45:13;;;;;;;;;;;13.90;65.30;;;12.73;48.45;96073.88;10416807;28;1732;-87
2021/03/31 20:50:16;;;;;;;;;;;13.90;66.10;;;12.71;47.99;96070.63;10391068;28;2027;-86
2021/03/31 20:55:19;;;;;;;;;;;13.80;65.70;;;12.58;49.02;96065.84;10379397;28;2106;-87
2021/03/31 21:00:22;;;;;;;;;;;13.80;66.10;;;12.48;48.69;96079.41;10397517;28;2026;-87
2021/03/31 21:05:24;;;;;;;;;;;13.60;66.40;;;12.35;49.07;96067.34;10390144;28;1953;-86
2021/03/31 21:10:26;;;;;;;;;;;13.50;66.80;;;12.28;49.57;96069.50;10407579;28;1995;-86
2021/03/31 21:15:28;;;;;;;;;;;13.40;67.20;;;12.15;50.03;96062.84;10377797;28;1876;-87
2021/03/31 21:20:30;;;;;;;;;;;13.40;67.70;;;12.05;51.20;96069.09;10407791;28;1739;-87
2021/03/31 21:25:32;;;;;;;;;;;13.30;68.70;;;11.95;51.22;96062.91;10401970;28;1902;-86
2021/03/31 21:30:34;;;;;;;;;;;13.10;69.10;;;11.84;51.51;96060.28;10393547;28;1918;-85
2021/03/31 21:35:36;;;;;;;;;;;13.00;69.30;;;11.72;52.39;96064.31;10387905;28;1850;-86
2021/03/31 21:40:38;;;;;;;;;;;12.90;70.10;;;11.61;52.73;96064.34;10412637;28;1762;-87
2021/03/31 21:45:40;;;;;;;;;;;12.80;70.50;;;11.58;52.40;96064.09;10398419;28;1977;-85
2021/03/31 21:50:42;;;;;;;;;;;12.70;70.30;;;11.45;52.88;96070.00;10416406;28;1950;-85
2021/03/31 21:55:44;;;;;;;;;;;12.70;70.60;;;11.34;53.23;96067.34;10389431;28;1278;-85
2021/03/31 22:00:46;;;;;;;;;;;12.60;71.10;;;11.30;53.64;96074.34;10407946;28;1760;-88
2021/03/31 22:05:49;;;;;;;;;;;12.50;71.50;;;11.24;53.75;96063.84;10412923;28;1772;-87
2021/03/31 22:10:53;;;;;;;;;;;12.40;71.50;;;11.19;53.98;96086.19;10419871;28;1891;-86
2021/03/31 22:15:55;;;;;;;;;;;12.30;72.10;;;11.23;53.91;96084.56;10398513;28;1985;-88
2021/03/31 22:20:57;;;;;;;;;;;12.30;72.20;;;11.15;53.51;96082.44;10406302;28;1913;-87
2021/03/31 22:25:59;;;;;;;;;;;12.20;72.00;;;11.17;53.67;96074.09;10409077;28;2006;-86
2021/03/31 22:31:04;;;;;;;;;;;12.20;72.10;;;11.04;53.55;96081.63;10401100;28;1943;-89
2021/03/31 22:36:05;;;;;;;;;;;12.10;72.00;;;11.04;53.19;96070.06;10400334;28;1579;-86
2021/03/31 22:41:07;;;;;;;;;;;12.10;72.00;;;11.02;52.91;96061.44;10395745;28;1933;-86
2021/03/31 22:46:10;;;;;;;;;;;12.10;71.90;;;10.95;52.67;96066.28;10398551;28;2021;-86
2021/03/31 22:51:13;;;;;;;;;;;12.00;71.50;;;10.78;53.48;96067.34;10385218;28;1981;-86
2021/03/31 22:56:15;;;;;;;;;;;11.90;71.60;;;10.70;53.40;96059.81;10382323;28;1343;-86
2021/03/31 23:01:23;;;;;;;;;;;11.60;71.80;;;10.59;53.65;96068.94;10396151;28;1981;-86
2021/03/31 23:06:27;;;;;;;;;;;11.70;72.10;;;10.46;54.21;96064.06;10387892;28;1590;-86
2021/03/31 23:11:29;;;;;;;;;;;11.60;72.20;;;10.44;54.30;96066.22;10390423;28;2016;-86
2021/03/31 23:16:31;;;;;;;;;;;11.60;72.60;;;10.45;54.01;96074.00;10398781;28;1570;-87
2021/03/31 23:21:33;;;;;;;;;;;11.60;72.60;;;10.45;53.71;96062.47;10408047;28;1918;-85
2021/03/31 23:26:35;;;;;;;;;;;11.50;72.70;;;10.48;53.89;96067.28;10395365;28;1784;-86
2021/03/31 23:31:37;;;;;;;;;;;11.60;72.80;;;10.70;53.37;96064.38;10399156;28;1895;-84
2021/03/31 23:36:39;;;;;;;;;;;11.70;72.90;;;10.66;53.64;96066.78;10385402;28;2044;-87
2021/03/31 23:41:41;;;;;;;;;;;11.70;72.60;;;10.53;54.45;96078.06;10378645;28;1989;-88
2021/03/31 23:46:43;;;;;;;;;;;11.70;72.80;;;10.77;53.86;96073.00;10413575;28;1324;-87
2021/03/31 23:51:46;;;;;;;;;;;11.70;73.00;;;10.77;53.85;96065.72;10378430;28;1978;-87
2021/03/31 23:56:48;;;;;;;;;;;11.70;73.00;;;10.66;53.91;96055.22;10384865;28;1918;-87
